sensor_id;sensor_type;location;lat;lon;timestamp;P1;durP1;ratioP1;P2;durP2;ratioP2
72286;SDS011;60221;45.696;16.076;2023-02-14T00:00:29;30.50;;;10.40;;
72286;SDS011;60221;45.696;16.076;2023-02-14T00:02:56;23.60;;;9.10;;
72286;SDS011;60221;45.696;16.076;2023-02-14T00:05:23;27.50;;;10.90;;
72286;SDS011;60221;45.696;16.076;2023-02-14T00:07:50;26.20;;;10.40;;
72286;SDS011;60221;45.696;16.076;2023-02-14T00:10:17;34.60;;;11.90;;
72286;SDS011;60221;45.696;16.076;2023-02-14T00:12:44;28.40;;;10.40;;
72286;SDS011;60221;45.696;16.076;2023-02-14T00:15:11;25.90;;;9.10;;
72286;SDS011;60221;45.696;16.076;2023-02-14T00:17:51;22.60;;;8.70;;
72286;SDS011;60221;45.696;16.076;2023-02-14T00:20:21;21.60;;;8.00;;
72286;SDS011;60221;45.696;16.076;2023-02-14T00:22:48;28.60;;;10.80;;
72286;SDS011;60221;45.696;16.076;2023-02-14T00:25:15;35.90;;;12.60;;
72286;SDS011;60221;45.696;16.076;2023-02-14T00:27:42;40.60;;;15.90;;
72286;SDS011;60221;45.696;16.076;2023-02-14T00:30:09;33.20;;;13.30;;
72286;SDS011;60221;45.696;16.076;2023-02-14T00:32:38;20.30;;;8.10;;
72286;SDS011;60221;45.696;16.076;2023-02-14T00:35:05;22.40;;;8.90;;
72286;SDS011;60221;45.696;16.076;2023-02-14T00:37:32;23.00;;;7.90;;
72286;SDS011;60221;45.696;16.076;2023-02-14T00:40:00;23.10;;;9.30;;
72286;SDS011;60221;45.696;16.076;2023-02-14T00:42:27;27.40;;;10.40;;
72286;SDS011;60221;45.696;16.076;2023-02-14T00:44:54;23.30;;;9.60;;
72286;SDS011;60221;45.696;16.076;2023-02-14T00:47:20;25.00;;;10.40;;
72286;SDS011;60221;45.696;16.076;2023-02-14T00:49:47;25.40;;;11.30;;
72286;SDS011;60221;45.696;16.076;2023-02-14T00:52:14;27.00;;;11.40;;
72286;SDS011;60221;45.696;16.076;2023-02-14T00:54:41;26.90;;;10.40;;
72286;SDS011;60221;45.696;16.076;2023-02-14T00:57:08;28.00;;;12.00;;
72286;SDS011;60221;45.696;16.076;2023-02-14T00:59:35;32.30;;;13.40;;
72286;SDS011;60221;45.696;16.076;2023-02-14T01:02:02;27.40;;;11.20;;
72286;SDS011;60221;45.696;16.076;2023-02-14T01:04:29;33.80;;;14.60;;
72286;SDS011;60221;45.696;16.076;2023-02-14T01:06:56;39.50;;;15.70;;
72286;SDS011;60221;45.696;16.076;2023-02-14T01:09:23;33.80;;;14.70;;
72286;SDS011;60221;45.696;16.076;2023-02-14T01:11:50;35.80;;;14.40;;
72286;SDS011;60221;45.696;16.076;2023-02-14T01:14:17;41.50;;;17.50;;
72286;SDS011;60221;45.696;16.076;2023-02-14T01:16:44;42.80;;;16.90;;
72286;SDS011;60221;45.696;16.076;2023-02-14T01:19:11;42.50;;;16.00;;
72286;SDS011;60221;45.696;16.076;2023-02-14T01:21:42;44.80;;;17.90;;
72286;SDS011;60221;45.696;16.076;2023-02-14T01:24:09;44.70;;;18.10;;
72286;SDS011;60221;45.696;16.076;2023-02-14T01:26:39;48.70;;;19.20;;
72286;SDS011;60221;45.696;16.076;2023-02-14T01:29:07;38.60;;;16.50;;
72286;SDS011;60221;45.696;16.076;2023-02-14T01:31:34;39.50;;;17.50;;
72286;SDS011;60221;45.696;16.076;2023-02-14T01:34:02;36.10;;;14.30;;
72286;SDS011;60221;45.696;16.076;2023-02-14T01:36:31;40.60;;;18.80;;
72286;SDS011;60221;45.696;16.076;2023-02-14T01:38:59;45.80;;;17.70;;
72286;SDS011;60221;45.696;16.076;2023-02-14T01:41:29;43.60;;;18.50;;
72286;SDS011;60221;45.696;16.076;2023-02-14T01:46:24;40.40;;;16.00;;
72286;SDS011;60221;45.696;16.076;2023-02-14T01:48:57;37.20;;;15.60;;
72286;SDS011;60221;45.696;16.076;2023-02-14T01:51:26;35.40;;;15.70;;
72286;SDS011;60221;45.696;16.076;2023-02-14T01:53:54;36.50;;;15.20;;
72286;SDS011;60221;45.696;16.076;2023-02-14T01:56:29;36.10;;;14.10;;
72286;SDS011;60221;45.696;16.076;2023-02-14T01:59:00;42.10;;;16.90;;
72286;SDS011;60221;45.696;16.076;2023-02-14T02:01:28;54.20;;;22.40;;
72286;SDS011;60221;45.696;16.076;2023-02-14T02:03:56;49.60;;;23.40;;
72286;SDS011;60221;45.696;16.076;2023-02-14T02:06:30;37.40;;;16.60;;
72286;SDS011;60221;45.696;16.076;2023-02-14T02:11:26;30.90;;;12.80;;
72286;SDS011;60221;45.696;16.076;2023-02-14T02:13:53;35.50;;;13.50;;
72286;SDS011;60221;45.696;16.076;2023-02-14T02:16:43;31.00;;;12.90;;
72286;SDS011;60221;45.696;16.076;2023-02-14T02:19:22;36.50;;;16.20;;
72286;SDS011;60221;45.696;16.076;2023-02-14T02:22:03;49.60;;;17.30;;
72286;SDS011;60221;45.696;16.076;2023-02-14T02:27:23;31.80;;;13.40;;
72286;SDS011;60221;45.696;16.076;2023-02-14T02:45:40;26.80;;;10.40;;
72286;SDS011;60221;45.696;16.076;2023-02-14T02:48:33;28.70;;;10.30;;
72286;SDS011;60221;45.696;16.076;2023-02-14T02:51:02;19.70;;;8.30;;
72286;SDS011;60221;45.696;16.076;2023-02-14T02:54:02;22.40;;;8.80;;
72286;SDS011;60221;45.696;16.076;2023-02-14T02:56:31;24.50;;;10.40;;
72286;SDS011;60221;45.696;16.076;2023-02-14T02:59:20;24.10;;;8.50;;
72286;SDS011;60221;45.696;16.076;2023-02-14T03:04:38;32.30;;;13.50;;
72286;SDS011;60221;45.696;16.076;2023-02-14T03:07:33;26.70;;;9.90;;
72286;SDS011;60221;45.696;16.076;2023-02-14T03:15:20;37.80;;;16.40;;
72286;SDS011;60221;45.696;16.076;2023-02-14T03:17:58;38.00;;;14.90;;
72286;SDS011;60221;45.696;16.076;2023-02-14T03:23:16;46.70;;;18.00;;
72286;SDS011;60221;45.696;16.076;2023-02-14T03:31:06;37.00;;;15.90;;
72286;SDS011;60221;45.696;16.076;2023-02-14T03:33:43;33.00;;;14.70;;
72286;SDS011;60221;45.696;16.076;2023-02-14T03:36:16;35.60;;;13.90;;
72286;SDS011;60221;45.696;16.076;2023-02-14T03:41:18;36.10;;;15.10;;
72286;SDS011;60221;45.696;16.076;2023-02-14T03:43:48;36.60;;;14.40;;
72286;SDS011;60221;45.696;16.076;2023-02-14T03:48:50;40.60;;;15.10;;
72286;SDS011;60221;45.696;16.076;2023-02-14T03:51:19;32.70;;;14.10;;
72286;SDS011;60221;45.696;16.076;2023-02-14T03:53:49;36.10;;;14.30;;
72286;SDS011;60221;45.696;16.076;2023-02-14T03:56:21;30.60;;;14.80;;
72286;SDS011;60221;45.696;16.076;2023-02-14T03:58:53;30.30;;;13.90;;
72286;SDS011;60221;45.696;16.076;2023-02-14T04:01:23;32.60;;;12.80;;
72286;SDS011;60221;45.696;16.076;2023-02-14T04:03:51;29.40;;;12.10;;
72286;SDS011;60221;45.696;16.076;2023-02-14T04:06:19;26.40;;;9.50;;
72286;SDS011;60221;45.696;16.076;2023-02-14T04:08:46;30.00;;;12.00;;
72286;SDS011;60221;45.696;16.076;2023-02-14T04:11:13;28.30;;;10.00;;
72286;SDS011;60221;45.696;16.076;2023-02-14T04:13:40;19.60;;;8.50;;
72286;SDS011;60221;45.696;16.076;2023-02-14T04:16:07;28.80;;;11.70;;
72286;SDS011;60221;45.696;16.076;2023-02-14T04:18:35;38.00;;;15.20;;
72286;SDS011;60221;45.696;16.076;2023-02-14T04:21:20;38.00;;;15.40;;
72286;SDS011;60221;45.696;16.076;2023-02-14T04:23:47;34.00;;;14.50;;
72286;SDS011;60221;45.696;16.076;2023-02-14T04:26:14;35.00;;;14.70;;
72286;SDS011;60221;45.696;16.076;2023-02-14T04:28:41;40.90;;;16.80;;
72286;SDS011;60221;45.696;16.076;2023-02-14T04:31:08;36.60;;;17.00;;
72286;SDS011;60221;45.696;16.076;2023-02-14T04:33:37;37.30;;;15.80;;
72286;SDS011;60221;45.696;16.076;2023-02-14T04:36:05;38.80;;;16.60;;
72286;SDS011;60221;45.696;16.076;2023-02-14T04:38:32;37.90;;;15.40;;
72286;SDS011;60221;45.696;16.076;2023-02-14T04:40:59;38.30;;;17.70;;
72286;SDS011;60221;45.696;16.076;2023-02-14T04:43:27;51.40;;;20.20;;
72286;SDS011;60221;45.696;16.076;2023-02-14T04:45:54;49.80;;;21.60;;
72286;SDS011;60221;45.696;16.076;2023-02-14T04:48:21;47.30;;;22.50;;
72286;SDS011;60221;45.696;16.076;2023-02-14T04:50:52;44.10;;;19.80;;
72286;SDS011;60221;45.696;16.076;2023-02-14T04:53:19;39.40;;;18.30;;
72286;SDS011;60221;45.696;16.076;2023-02-14T04:55:49;39.00;;;16.70;;
72286;SDS011;60221;45.696;16.076;2023-02-14T04:58:16;39.60;;;18.00;;
72286;SDS011;60221;45.696;16.076;2023-02-14T05:00:44;35.90;;;16.40;;
72286;SDS011;60221;45.696;16.076;2023-02-14T05:03:11;45.40;;;18.60;;
72286;SDS011;60221;45.696;16.076;2023-02-14T05:05:38;44.20;;;18.10;;
72286;SDS011;60221;45.696;16.076;2023-02-14T05:08:05;38.90;;;17.50;;
72286;SDS011;60221;45.696;16.076;2023-02-14T05:10:32;38.10;;;16.70;;
72286;SDS011;60221;45.696;16.076;2023-02-14T05:12:59;52.20;;;18.00;;
72286;SDS011;60221;45.696;16.076;2023-02-14T05:15:26;36.10;;;17.10;;
72286;SDS011;60221;45.696;16.076;2023-02-14T05:17:53;43.50;;;17.40;;
72286;SDS011;60221;45.696;16.076;2023-02-14T05:20:19;41.80;;;19.20;;
72286;SDS011;60221;45.696;16.076;2023-02-14T05:22:46;45.00;;;17.90;;
72286;SDS011;60221;45.696;16.076;2023-02-14T05:25:13;40.60;;;18.90;;
72286;SDS011;60221;45.696;16.076;2023-02-14T05:27:39;33.70;;;16.60;;
72286;SDS011;60221;45.696;16.076;2023-02-14T05:30:07;34.70;;;14.50;;
72286;SDS011;60221;45.696;16.076;2023-02-14T05:32:34;55.90;;;25.70;;
72286;SDS011;60221;45.696;16.076;2023-02-14T05:35:01;51.20;;;22.70;;
72286;SDS011;60221;45.696;16.076;2023-02-14T05:37:28;51.50;;;25.20;;
72286;SDS011;60221;45.696;16.076;2023-02-14T05:39:55;48.50;;;22.20;;
72286;SDS011;60221;45.696;16.076;2023-02-14T05:42:21;39.70;;;19.90;;
72286;SDS011;60221;45.696;16.076;2023-02-14T05:44:48;47.20;;;19.50;;
72286;SDS011;60221;45.696;16.076;2023-02-14T05:47:15;40.40;;;18.10;;
72286;SDS011;60221;45.696;16.076;2023-02-14T05:49:42;44.70;;;19.50;;
72286;SDS011;60221;45.696;16.076;2023-02-14T05:52:08;40.60;;;18.70;;
72286;SDS011;60221;45.696;16.076;2023-02-14T05:54:35;40.30;;;18.90;;
72286;SDS011;60221;45.696;16.076;2023-02-14T05:57:02;48.80;;;19.10;;
72286;SDS011;60221;45.696;16.076;2023-02-14T05:59:29;42.70;;;18.70;;
72286;SDS011;60221;45.696;16.076;2023-02-14T06:01:56;38.40;;;16.60;;
72286;SDS011;60221;45.696;16.076;2023-02-14T06:04:23;41.10;;;18.40;;
72286;SDS011;60221;45.696;16.076;2023-02-14T06:06:49;39.50;;;17.50;;
72286;SDS011;60221;45.696;16.076;2023-02-14T06:09:16;41.30;;;18.80;;
72286;SDS011;60221;45.696;16.076;2023-02-14T06:11:44;41.10;;;19.70;;
72286;SDS011;60221;45.696;16.076;2023-02-14T06:14:11;40.80;;;18.60;;
72286;SDS011;60221;45.696;16.076;2023-02-14T06:16:37;38.00;;;15.90;;
72286;SDS011;60221;45.696;16.076;2023-02-14T06:19:05;45.90;;;18.90;;
72286;SDS011;60221;45.696;16.076;2023-02-14T06:21:31;35.00;;;16.40;;
72286;SDS011;60221;45.696;16.076;2023-02-14T06:23:58;37.00;;;15.70;;
72286;SDS011;60221;45.696;16.076;2023-02-14T06:26:25;38.70;;;14.80;;
72286;SDS011;60221;45.696;16.076;2023-02-14T06:28:55;51.10;;;21.40;;
72286;SDS011;60221;45.696;16.076;2023-02-14T06:31:22;43.20;;;20.70;;
72286;SDS011;60221;45.696;16.076;2023-02-14T06:33:50;45.10;;;19.40;;
72286;SDS011;60221;45.696;16.076;2023-02-14T06:36:17;51.10;;;22.20;;
72286;SDS011;60221;45.696;16.076;2023-02-14T06:38:44;49.70;;;22.00;;
72286;SDS011;60221;45.696;16.076;2023-02-14T06:41:13;49.90;;;22.80;;
72286;SDS011;60221;45.696;16.076;2023-02-14T06:43:43;46.10;;;22.20;;
72286;SDS011;60221;45.696;16.076;2023-02-14T06:46:10;39.40;;;19.60;;
72286;SDS011;60221;45.696;16.076;2023-02-14T06:48:37;40.90;;;19.60;;
72286;SDS011;60221;45.696;16.076;2023-02-14T06:51:04;47.30;;;20.40;;
72286;SDS011;60221;45.696;16.076;2023-02-14T06:53:30;40.00;;;16.50;;
72286;SDS011;60221;45.696;16.076;2023-02-14T06:55:57;44.10;;;17.80;;
72286;SDS011;60221;45.696;16.076;2023-02-14T06:58:24;31.20;;;13.40;;
72286;SDS011;60221;45.696;16.076;2023-02-14T07:00:53;32.80;;;13.40;;
72286;SDS011;60221;45.696;16.076;2023-02-14T07:03:20;30.40;;;13.10;;
72286;SDS011;60221;45.696;16.076;2023-02-14T07:05:47;35.20;;;15.40;;
72286;SDS011;60221;45.696;16.076;2023-02-14T07:08:13;41.50;;;18.20;;
72286;SDS011;60221;45.696;16.076;2023-02-14T07:10:40;34.50;;;15.50;;
72286;SDS011;60221;45.696;16.076;2023-02-14T07:13:07;35.70;;;16.40;;
72286;SDS011;60221;45.696;16.076;2023-02-14T07:15:34;27.10;;;14.00;;
72286;SDS011;60221;45.696;16.076;2023-02-14T07:18:00;40.90;;;18.40;;
72286;SDS011;60221;45.696;16.076;2023-02-14T07:20:27;48.50;;;23.10;;
72286;SDS011;60221;45.696;16.076;2023-02-14T07:22:54;49.70;;;20.10;;
72286;SDS011;60221;45.696;16.076;2023-02-14T07:25:21;42.30;;;19.80;;
72286;SDS011;60221;45.696;16.076;2023-02-14T07:27:48;40.80;;;19.20;;
72286;SDS011;60221;45.696;16.076;2023-02-14T07:30:15;44.10;;;19.40;;
72286;SDS011;60221;45.696;16.076;2023-02-14T07:32:42;48.60;;;20.80;;
72286;SDS011;60221;45.696;16.076;2023-02-14T07:35:09;44.50;;;20.10;;
72286;SDS011;60221;45.696;16.076;2023-02-14T07:37:36;34.30;;;16.20;;
72286;SDS011;60221;45.696;16.076;2023-02-14T07:40:04;36.40;;;19.00;;
72286;SDS011;60221;45.696;16.076;2023-02-14T07:42:37;44.30;;;20.80;;
72286;SDS011;60221;45.696;16.076;2023-02-14T07:45:04;34.70;;;17.30;;
72286;SDS011;60221;45.696;16.076;2023-02-14T07:47:50;31.80;;;13.70;;
72286;SDS011;60221;45.696;16.076;2023-02-14T07:50:18;36.40;;;17.20;;
72286;SDS011;60221;45.696;16.076;2023-02-14T07:52:46;30.00;;;11.80;;
72286;SDS011;60221;45.696;16.076;2023-02-14T07:55:13;31.30;;;14.30;;
72286;SDS011;60221;45.696;16.076;2023-02-14T07:57:40;36.60;;;16.70;;
72286;SDS011;60221;45.696;16.076;2023-02-14T08:00:07;30.00;;;13.10;;
72286;SDS011;60221;45.696;16.076;2023-02-14T08:02:37;51.00;;;22.60;;
72286;SDS011;60221;45.696;16.076;2023-02-14T08:05:05;38.20;;;16.70;;
72286;SDS011;60221;45.696;16.076;2023-02-14T08:07:32;42.70;;;18.90;;
72286;SDS011;60221;45.696;16.076;2023-02-14T08:09:59;41.40;;;17.90;;
72286;SDS011;60221;45.696;16.076;2023-02-14T08:12:25;50.00;;;22.90;;
72286;SDS011;60221;45.696;16.076;2023-02-14T08:15:11;41.00;;;19.20;;
72286;SDS011;60221;45.696;16.076;2023-02-14T08:17:57;44.30;;;20.00;;
72286;SDS011;60221;45.696;16.076;2023-02-14T08:20:24;109.80;;;48.40;;
72286;SDS011;60221;45.696;16.076;2023-02-14T08:22:50;64.20;;;28.70;;
72286;SDS011;60221;45.696;16.076;2023-02-14T08:25:17;38.90;;;18.40;;
72286;SDS011;60221;45.696;16.076;2023-02-14T08:27:44;42.00;;;19.30;;
72286;SDS011;60221;45.696;16.076;2023-02-14T08:30:10;34.50;;;16.90;;
72286;SDS011;60221;45.696;16.076;2023-02-14T08:32:37;46.30;;;20.70;;
72286;SDS011;60221;45.696;16.076;2023-02-14T08:35:05;37.90;;;19.20;;
72286;SDS011;60221;45.696;16.076;2023-02-14T08:37:31;49.60;;;26.00;;
72286;SDS011;60221;45.696;16.076;2023-02-14T08:39:58;57.10;;;29.60;;
72286;SDS011;60221;45.696;16.076;2023-02-14T08:42:25;52.90;;;28.40;;
72286;SDS011;60221;45.696;16.076;2023-02-14T08:44:52;42.00;;;21.20;;
72286;SDS011;60221;45.696;16.076;2023-02-14T08:47:18;68.10;;;35.10;;
72286;SDS011;60221;45.696;16.076;2023-02-14T08:49:45;46.90;;;24.80;;
72286;SDS011;60221;45.696;16.076;2023-02-14T08:52:12;36.20;;;18.60;;
72286;SDS011;60221;45.696;16.076;2023-02-14T08:54:39;38.80;;;17.50;;
72286;SDS011;60221;45.696;16.076;2023-02-14T08:57:05;25.80;;;11.50;;
72286;SDS011;60221;45.696;16.076;2023-02-14T08:59:32;38.50;;;18.70;;
72286;SDS011;60221;45.696;16.076;2023-02-14T09:01:59;36.80;;;16.90;;
72286;SDS011;60221;45.696;16.076;2023-02-14T09:04:26;35.10;;;16.40;;
72286;SDS011;60221;45.696;16.076;2023-02-14T09:06:53;31.30;;;14.50;;
72286;SDS011;60221;45.696;16.076;2023-02-14T09:09:20;26.50;;;12.20;;
72286;SDS011;60221;45.696;16.076;2023-02-14T09:11:46;35.10;;;16.60;;
72286;SDS011;60221;45.696;16.076;2023-02-14T09:14:13;32.30;;;16.50;;
72286;SDS011;60221;45.696;16.076;2023-02-14T09:16:41;43.00;;;20.30;;
72286;SDS011;60221;45.696;16.076;2023-02-14T09:19:08;38.00;;;17.60;;
72286;SDS011;60221;45.696;16.076;2023-02-14T09:21:35;43.60;;;20.20;;
72286;SDS011;60221;45.696;16.076;2023-02-14T09:24:02;46.30;;;25.10;;
72286;SDS011;60221;45.696;16.076;2023-02-14T09:26:28;46.10;;;25.00;;
72286;SDS011;60221;45.696;16.076;2023-02-14T09:28:55;50.10;;;25.10;;
72286;SDS011;60221;45.696;16.076;2023-02-14T09:31:22;36.00;;;17.40;;
72286;SDS011;60221;45.696;16.076;2023-02-14T09:33:50;37.50;;;17.70;;
72286;SDS011;60221;45.696;16.076;2023-02-14T09:36:17;41.70;;;21.50;;
72286;SDS011;60221;45.696;16.076;2023-02-14T09:38:44;39.10;;;19.80;;
72286;SDS011;60221;45.696;16.076;2023-02-14T09:41:23;31.70;;;15.10;;
72286;SDS011;60221;45.696;16.076;2023-02-14T09:44:58;31.30;;;16.40;;
72286;SDS011;60221;45.696;16.076;2023-02-14T09:46:52;29.40;;;13.10;;
72286;SDS011;60221;45.696;16.076;2023-02-14T09:49:22;24.70;;;12.10;;
72286;SDS011;60221;45.696;16.076;2023-02-14T09:51:53;28.50;;;14.00;;
72286;SDS011;60221;45.696;16.076;2023-02-14T09:54:23;25.10;;;11.00;;
72286;SDS011;60221;45.696;16.076;2023-02-14T09:59:59;28.70;;;15.00;;
72286;SDS011;60221;45.696;16.076;2023-02-14T10:02:37;29.10;;;16.20;;
72286;SDS011;60221;45.696;16.076;2023-02-14T10:07:39;29.80;;;14.00;;
72286;SDS011;60221;45.696;16.076;2023-02-14T10:13:21;32.50;;;17.20;;
72286;SDS011;60221;45.696;16.076;2023-02-14T10:15:57;25.10;;;11.70;;
72286;SDS011;60221;45.696;16.076;2023-02-14T10:18:35;28.70;;;12.30;;
72286;SDS011;60221;45.696;16.076;2023-02-14T10:21:04;27.40;;;12.90;;
72286;SDS011;60221;45.696;16.076;2023-02-14T10:23:33;22.90;;;9.50;;
72286;SDS011;60221;45.696;16.076;2023-02-14T10:28:38;25.50;;;11.20;;
72286;SDS011;60221;45.696;16.076;2023-02-14T10:31:31;17.40;;;8.80;;
72286;SDS011;60221;45.696;16.076;2023-02-14T10:34:18;21.30;;;9.90;;
72286;SDS011;60221;45.696;16.076;2023-02-14T10:47:22;16.10;;;6.70;;
72286;SDS011;60221;45.696;16.076;2023-02-14T10:52:35;19.50;;;8.30;;
72286;SDS011;60221;45.696;16.076;2023-02-14T10:55:09;20.90;;;9.40;;
72286;SDS011;60221;45.696;16.076;2023-02-14T10:57:42;19.60;;;9.60;;
72286;SDS011;60221;45.696;16.076;2023-02-14T11:02:40;18.20;;;7.70;;
72286;SDS011;60221;45.696;16.076;2023-02-14T11:05:25;20.40;;;9.00;;
72286;SDS011;60221;45.696;16.076;2023-02-14T11:07:53;21.50;;;9.00;;
72286;SDS011;60221;45.696;16.076;2023-02-14T11:10:21;19.90;;;9.00;;
72286;SDS011;60221;45.696;16.076;2023-02-14T11:12:49;18.70;;;8.10;;
72286;SDS011;60221;45.696;16.076;2023-02-14T11:17:46;11.20;;;5.00;;
72286;SDS011;60221;45.696;16.076;2023-02-14T11:20:24;16.70;;;7.00;;
72286;SDS011;60221;45.696;16.076;2023-02-14T11:22:52;14.30;;;6.50;;
72286;SDS011;60221;45.696;16.076;2023-02-14T11:27:46;17.40;;;7.40;;
72286;SDS011;60221;45.696;16.076;2023-02-14T11:30:21;15.00;;;6.40;;
72286;SDS011;60221;45.696;16.076;2023-02-14T11:32:51;15.30;;;7.20;;
72286;SDS011;60221;45.696;16.076;2023-02-14T11:35:23;16.20;;;7.40;;
72286;SDS011;60221;45.696;16.076;2023-02-14T11:37:55;17.00;;;6.90;;
72286;SDS011;60221;45.696;16.076;2023-02-14T11:42:57;16.70;;;7.50;;
72286;SDS011;60221;45.696;16.076;2023-02-14T11:45:41;17.10;;;7.80;;
72286;SDS011;60221;45.696;16.076;2023-02-14T11:48:14;22.20;;;9.40;;
72286;SDS011;60221;45.696;16.076;2023-02-14T11:53:43;31.40;;;11.30;;
72286;SDS011;60221;45.696;16.076;2023-02-14T11:56:11;18.50;;;7.80;;
72286;SDS011;60221;45.696;16.076;2023-02-14T11:58:48;18.40;;;7.60;;
72286;SDS011;60221;45.696;16.076;2023-02-14T12:01:21;16.60;;;7.30;;
72286;SDS011;60221;45.696;16.076;2023-02-14T12:03:49;15.70;;;6.60;;
72286;SDS011;60221;45.696;16.076;2023-02-14T12:06:23;13.00;;;5.50;;
72286;SDS011;60221;45.696;16.076;2023-02-14T12:08:51;17.20;;;6.70;;
72286;SDS011;60221;45.696;16.076;2023-02-14T12:11:32;9.50;;;3.90;;
72286;SDS011;60221;45.696;16.076;2023-02-14T12:13:59;13.90;;;4.50;;
72286;SDS011;60221;45.696;16.076;2023-02-14T12:16:30;11.50;;;5.20;;
72286;SDS011;60221;45.696;16.076;2023-02-14T12:19:02;10.30;;;4.30;;
72286;SDS011;60221;45.696;16.076;2023-02-14T12:30:09;12.60;;;5.20;;
72286;SDS011;60221;45.696;16.076;2023-02-14T12:32:47;13.00;;;4.60;;
72286;SDS011;60221;45.696;16.076;2023-02-14T12:35:15;11.70;;;5.10;;
72286;SDS011;60221;45.696;16.076;2023-02-14T12:37:59;15.20;;;5.90;;
72286;SDS011;60221;45.696;16.076;2023-02-14T12:40:34;11.30;;;4.50;;
72286;SDS011;60221;45.696;16.076;2023-02-14T12:43:15;9.90;;;4.40;;
72286;SDS011;60221;45.696;16.076;2023-02-14T12:51:41;11.10;;;4.50;;
72286;SDS011;60221;45.696;16.076;2023-02-14T13:06:46;11.70;;;4.80;;
72286;SDS011;60221;45.696;16.076;2023-02-14T13:09:28;11.80;;;4.70;;
72286;SDS011;60221;45.696;16.076;2023-02-14T13:17:36;11.50;;;5.10;;
72286;SDS011;60221;45.696;16.076;2023-02-14T13:22:31;11.20;;;4.70;;
72286;SDS011;60221;45.696;16.076;2023-02-14T13:25:00;10.60;;;4.10;;
72286;SDS011;60221;45.696;16.076;2023-02-14T13:27:33;9.40;;;4.20;;
72286;SDS011;60221;45.696;16.076;2023-02-14T13:30:45;11.90;;;4.30;;
72286;SDS011;60221;45.696;16.076;2023-02-14T13:32:53;10.50;;;3.70;;
72286;SDS011;60221;45.696;16.076;2023-02-14T13:35:22;11.80;;;3.60;;
72286;SDS011;60221;45.696;16.076;2023-02-14T13:37:54;10.20;;;4.10;;
72286;SDS011;60221;45.696;16.076;2023-02-14T13:40:24;8.90;;;3.10;;
72286;SDS011;60221;45.696;16.076;2023-02-14T13:42:52;11.60;;;4.00;;
72286;SDS011;60221;45.696;16.076;2023-02-14T13:50:36;12.10;;;4.20;;
72286;SDS011;60221;45.696;16.076;2023-02-14T13:53:04;10.20;;;3.50;;
72286;SDS011;60221;45.696;16.076;2023-02-14T13:55:34;10.60;;;4.20;;
72286;SDS011;60221;45.696;16.076;2023-02-14T13:58:05;11.10;;;4.20;;
72286;SDS011;60221;45.696;16.076;2023-02-14T14:00:37;10.10;;;3.90;;
72286;SDS011;60221;45.696;16.076;2023-02-14T14:03:05;10.10;;;4.00;;
72286;SDS011;60221;45.696;16.076;2023-02-14T14:10:44;11.20;;;4.00;;
72286;SDS011;60221;45.696;16.076;2023-02-14T14:18:43;10.60;;;3.80;;
72286;SDS011;60221;45.696;16.076;2023-02-14T14:26:46;18.10;;;6.20;;
72286;SDS011;60221;45.696;16.076;2023-02-14T14:31:46;11.50;;;4.30;;
72286;SDS011;60221;45.696;16.076;2023-02-14T14:34:17;10.30;;;3.80;;
72286;SDS011;60221;45.696;16.076;2023-02-14T14:36:45;14.30;;;4.00;;
72286;SDS011;60221;45.696;16.076;2023-02-14T14:39:13;8.90;;;3.70;;
72286;SDS011;60221;45.696;16.076;2023-02-14T14:41:50;9.70;;;3.90;;
72286;SDS011;60221;45.696;16.076;2023-02-14T14:44:18;9.80;;;3.20;;
72286;SDS011;60221;45.696;16.076;2023-02-14T14:46:44;9.00;;;3.70;;
72286;SDS011;60221;45.696;16.076;2023-02-14T14:49:12;9.70;;;4.30;;
72286;SDS011;60221;45.696;16.076;2023-02-14T14:51:41;10.30;;;3.60;;
72286;SDS011;60221;45.696;16.076;2023-02-14T14:54:13;12.30;;;4.40;;
72286;SDS011;60221;45.696;16.076;2023-02-14T14:56:48;12.90;;;4.30;;
72286;SDS011;60221;45.696;16.076;2023-02-14T14:59:29;10.80;;;4.90;;
72286;SDS011;60221;45.696;16.076;2023-02-14T15:02:00;11.40;;;3.80;;
72286;SDS011;60221;45.696;16.076;2023-02-14T15:04:29;9.70;;;3.90;;
72286;SDS011;60221;45.696;16.076;2023-02-14T15:06:57;10.40;;;4.20;;
72286;SDS011;60221;45.696;16.076;2023-02-14T15:09:38;9.90;;;3.70;;
72286;SDS011;60221;45.696;16.076;2023-02-14T15:12:09;10.50;;;3.60;;
72286;SDS011;60221;45.696;16.076;2023-02-14T15:14:55;8.90;;;3.30;;
72286;SDS011;60221;45.696;16.076;2023-02-14T15:17:26;11.00;;;3.50;;
72286;SDS011;60221;45.696;16.076;2023-02-14T15:19:54;8.60;;;3.70;;
72286;SDS011;60221;45.696;16.076;2023-02-14T15:22:25;10.20;;;3.70;;
72286;SDS011;60221;45.696;16.076;2023-02-14T15:24:52;10.10;;;3.90;;
72286;SDS011;60221;45.696;16.076;2023-02-14T15:27:20;10.30;;;3.80;;
72286;SDS011;60221;45.696;16.076;2023-02-14T15:29:57;11.00;;;4.70;;
72286;SDS011;60221;45.696;16.076;2023-02-14T15:32:25;9.60;;;3.80;;
72286;SDS011;60221;45.696;16.076;2023-02-14T15:34:53;10.10;;;3.80;;
72286;SDS011;60221;45.696;16.076;2023-02-14T15:37:21;13.90;;;3.70;;
72286;SDS011;60221;45.696;16.076;2023-02-14T15:39:50;10.50;;;3.80;;
72286;SDS011;60221;45.696;16.076;2023-02-14T15:42:19;8.70;;;3.60;;
72286;SDS011;60221;45.696;16.076;2023-02-14T15:44:48;14.50;;;4.20;;
72286;SDS011;60221;45.696;16.076;2023-02-14T15:47:14;14.00;;;4.20;;
72286;SDS011;60221;45.696;16.076;2023-02-14T15:49:42;12.10;;;5.40;;
72286;SDS011;60221;45.696;16.076;2023-02-14T15:52:11;9.70;;;3.80;;
72286;SDS011;60221;45.696;16.076;2023-02-14T15:54:45;10.10;;;4.30;;
72286;SDS011;60221;45.696;16.076;2023-02-14T15:57:31;13.60;;;4.80;;
72286;SDS011;60221;45.696;16.076;2023-02-14T16:00:02;13.30;;;4.70;;
72286;SDS011;60221;45.696;16.076;2023-02-14T16:02:38;15.50;;;5.80;;
72286;SDS011;60221;45.696;16.076;2023-02-14T16:05:13;15.00;;;6.80;;
72286;SDS011;60221;45.696;16.076;2023-02-14T16:07:53;16.70;;;6.20;;
72286;SDS011;60221;45.696;16.076;2023-02-14T16:10:29;15.90;;;7.00;;
72286;SDS011;60221;45.696;16.076;2023-02-14T16:12:57;17.70;;;8.20;;
72286;SDS011;60221;45.696;16.076;2023-02-14T16:15:27;19.10;;;9.80;;
72286;SDS011;60221;45.696;16.076;2023-02-14T16:17:55;21.20;;;9.20;;
72286;SDS011;60221;45.696;16.076;2023-02-14T16:20:36;19.30;;;8.80;;
72286;SDS011;60221;45.696;16.076;2023-02-14T16:23:26;17.60;;;8.10;;
72286;SDS011;60221;45.696;16.076;2023-02-14T16:25:54;20.80;;;8.70;;
72286;SDS011;60221;45.696;16.076;2023-02-14T16:28:29;20.00;;;9.20;;
72286;SDS011;60221;45.696;16.076;2023-02-14T16:30:57;22.00;;;9.80;;
72286;SDS011;60221;45.696;16.076;2023-02-14T16:33:26;20.10;;;9.50;;
72286;SDS011;60221;45.696;16.076;2023-02-14T16:35:54;25.10;;;10.20;;
72286;SDS011;60221;45.696;16.076;2023-02-14T16:38:32;23.00;;;10.50;;
72286;SDS011;60221;45.696;16.076;2023-02-14T16:41:01;26.90;;;11.10;;
72286;SDS011;60221;45.696;16.076;2023-02-14T16:43:32;23.90;;;9.70;;
72286;SDS011;60221;45.696;16.076;2023-02-14T16:46:00;25.60;;;10.30;;
72286;SDS011;60221;45.696;16.076;2023-02-14T16:48:29;24.30;;;9.90;;
72286;SDS011;60221;45.696;16.076;2023-02-14T16:50:58;29.80;;;11.60;;